sensor_id;sensor_type;location;lat;lon;timestamp;P1;durP1;ratioP1;P2;durP2;ratioP2
11533;SDS011;5823;50.588;8.462;2024-01-25T00:01:32;0.70;;;0.70;;
11533;SDS011;5823;50.588;8.462;2024-01-25T00:03:59;2.38;;;1.00;;
11533;SDS011;5823;50.588;8.462;2024-01-25T00:06:25;2.08;;;0.85;;
11533;SDS011;5823;50.588;8.462;2024-01-25T00:08:51;2.58;;;0.75;;
11533;SDS011;5823;50.588;8.462;2024-01-25T00:11:19;1.85;;;0.95;;
11533;SDS011;5823;50.588;8.462;2024-01-25T00:13:45;0.88;;;0.70;;
11533;SDS011;5823;50.588;8.462;2024-01-25T00:16:11;2.92;;;1.00;;
11533;SDS011;5823;50.588;8.462;2024-01-25T00:18:38;1.13;;;0.88;;
11533;SDS011;5823;50.588;8.462;2024-01-25T00:21:04;1.75;;;0.60;;
11533;SDS011;5823;50.588;8.462;2024-01-25T00:23:30;0.88;;;0.47;;
11533;SDS011;5823;50.588;8.462;2024-01-25T00:25:57;0.82;;;0.43;;
11533;SDS011;5823;50.588;8.462;2024-01-25T00:28:25;1.17;;;0.52;;
11533;SDS011;5823;50.588;8.462;2024-01-25T00:30:51;0.50;;;0.50;;
11533;SDS011;5823;50.588;8.462;2024-01-25T00:33:17;0.65;;;0.50;;
11533;SDS011;5823;50.588;8.462;2024-01-25T00:35:44;1.33;;;1.00;;
11533;SDS011;5823;50.588;8.462;2024-01-25T00:38:10;1.85;;;1.00;;
11533;SDS011;5823;50.588;8.462;2024-01-25T00:40:37;2.22;;;0.57;;
11533;SDS011;5823;50.588;8.462;2024-01-25T00:43:03;2.80;;;1.33;;
11533;SDS011;5823;50.588;8.462;2024-01-25T00:45:31;3.45;;;1.40;;
11533;SDS011;5823;50.588;8.462;2024-01-25T00:47:58;1.75;;;0.80;;
11533;SDS011;5823;50.588;8.462;2024-01-25T00:50:25;2.80;;;1.20;;
11533;SDS011;5823;50.588;8.462;2024-01-25T00:52:52;2.05;;;0.77;;
11533;SDS011;5823;50.588;8.462;2024-01-25T00:55:18;2.42;;;0.98;;
11533;SDS011;5823;50.588;8.462;2024-01-25T00:57:45;1.00;;;0.57;;
11533;SDS011;5823;50.588;8.462;2024-01-25T01:00:11;0.52;;;0.47;;
11533;SDS011;5823;50.588;8.462;2024-01-25T01:02:41;3.40;;;0.88;;
11533;SDS011;5823;50.588;8.462;2024-01-25T01:05:09;1.92;;;0.98;;
11533;SDS011;5823;50.588;8.462;2024-01-25T01:07:35;1.52;;;1.08;;
11533;SDS011;5823;50.588;8.462;2024-01-25T01:10:02;1.00;;;0.70;;
11533;SDS011;5823;50.588;8.462;2024-01-25T01:12:28;1.02;;;0.60;;
11533;SDS011;5823;50.588;8.462;2024-01-25T01:14:54;0.47;;;0.47;;
11533;SDS011;5823;50.588;8.462;2024-01-25T01:17:21;1.67;;;0.93;;
11533;SDS011;5823;50.588;8.462;2024-01-25T01:19:48;1.73;;;0.68;;
11533;SDS011;5823;50.588;8.462;2024-01-25T01:22:14;2.22;;;0.80;;
11533;SDS011;5823;50.588;8.462;2024-01-25T01:24:41;1.58;;;0.95;;
11533;SDS011;5823;50.588;8.462;2024-01-25T01:27:07;0.88;;;0.52;;
11533;SDS011;5823;50.588;8.462;2024-01-25T01:29:33;1.20;;;0.50;;
11533;SDS011;5823;50.588;8.462;2024-01-25T01:31:59;0.30;;;0.30;;
11533;SDS011;5823;50.588;8.462;2024-01-25T01:34:26;0.57;;;0.50;;
11533;SDS011;5823;50.588;8.462;2024-01-25T01:36:53;0.93;;;0.50;;
11533;SDS011;5823;50.588;8.462;2024-01-25T01:39:19;0.50;;;0.50;;
11533;SDS011;5823;50.588;8.462;2024-01-25T01:41:46;0.40;;;0.40;;
11533;SDS011;5823;50.588;8.462;2024-01-25T01:44:12;0.77;;;0.60;;
11533;SDS011;5823;50.588;8.462;2024-01-25T01:46:39;0.98;;;0.52;;
11533;SDS011;5823;50.588;8.462;2024-01-25T01:49:07;1.30;;;0.52;;
11533;SDS011;5823;50.588;8.462;2024-01-25T01:51:34;0.98;;;0.65;;
11533;SDS011;5823;50.588;8.462;2024-01-25T01:54:02;1.38;;;0.70;;
11533;SDS011;5823;50.588;8.462;2024-01-25T01:56:28;0.30;;;0.30;;
11533;SDS011;5823;50.588;8.462;2024-01-25T01:58:56;0.30;;;0.30;;
11533;SDS011;5823;50.588;8.462;2024-01-25T02:01:22;1.08;;;0.70;;
11533;SDS011;5823;50.588;8.462;2024-01-25T02:03:49;1.35;;;0.57;;
11533;SDS011;5823;50.588;8.462;2024-01-25T02:06:15;0.68;;;0.45;;
11533;SDS011;5823;50.588;8.462;2024-01-25T02:08:42;2.00;;;1.00;;
11533;SDS011;5823;50.588;8.462;2024-01-25T02:11:11;1.60;;;0.88;;
11533;SDS011;5823;50.588;8.462;2024-01-25T02:13:38;0.85;;;0.70;;
11533;SDS011;5823;50.588;8.462;2024-01-25T02:16:04;1.17;;;0.80;;
11533;SDS011;5823;50.588;8.462;2024-01-25T02:18:31;1.27;;;0.63;;
11533;SDS011;5823;50.588;8.462;2024-01-25T02:20:58;2.50;;;0.82;;
11533;SDS011;5823;50.588;8.462;2024-01-25T02:23:25;0.80;;;0.60;;
11533;SDS011;5823;50.588;8.462;2024-01-25T02:25:51;0.52;;;0.50;;
11533;SDS011;5823;50.588;8.462;2024-01-25T02:28:18;0.30;;;0.30;;
11533;SDS011;5823;50.588;8.462;2024-01-25T02:30:44;0.17;;;0.17;;
11533;SDS011;5823;50.588;8.462;2024-01-25T02:33:10;0.70;;;0.38;;
11533;SDS011;5823;50.588;8.462;2024-01-25T02:35:36;2.03;;;0.50;;
11533;SDS011;5823;50.588;8.462;2024-01-25T02:38:03;0.85;;;0.40;;
11533;SDS011;5823;50.588;8.462;2024-01-25T02:40:30;2.10;;;0.77;;
11533;SDS011;5823;50.588;8.462;2024-01-25T02:42:57;1.45;;;0.70;;
11533;SDS011;5823;50.588;8.462;2024-01-25T02:45:23;0.80;;;0.40;;
11533;SDS011;5823;50.588;8.462;2024-01-25T02:47:49;1.05;;;0.60;;
11533;SDS011;5823;50.588;8.462;2024-01-25T02:50:15;0.68;;;0.60;;
11533;SDS011;5823;50.588;8.462;2024-01-25T02:52:42;1.20;;;0.65;;
11533;SDS011;5823;50.588;8.462;2024-01-25T02:55:08;0.50;;;0.45;;
11533;SDS011;5823;50.588;8.462;2024-01-25T02:57:36;1.75;;;0.68;;
11533;SDS011;5823;50.588;8.462;2024-01-25T03:00:02;0.30;;;0.30;;
11533;SDS011;5823;50.588;8.462;2024-01-25T03:02:29;0.20;;;0.20;;
11533;SDS011;5823;50.588;8.462;2024-01-25T03:04:56;0.40;;;0.38;;
11533;SDS011;5823;50.588;8.462;2024-01-25T03:07:22;0.57;;;0.50;;
11533;SDS011;5823;50.588;8.462;2024-01-25T03:09:49;0.45;;;0.40;;
11533;SDS011;5823;50.588;8.462;2024-01-25T03:12:15;0.55;;;0.30;;
11533;SDS011;5823;50.588;8.462;2024-01-25T03:14:42;0.50;;;0.30;;
11533;SDS011;5823;50.588;8.462;2024-01-25T03:17:09;0.50;;;0.47;;
11533;SDS011;5823;50.588;8.462;2024-01-25T03:19:37;1.25;;;0.70;;
11533;SDS011;5823;50.588;8.462;2024-01-25T03:22:03;0.25;;;0.25;;
11533;SDS011;5823;50.588;8.462;2024-01-25T03:24:29;0.43;;;0.40;;
11533;SDS011;5823;50.588;8.462;2024-01-25T03:26:55;0.30;;;0.30;;
11533;SDS011;5823;50.588;8.462;2024-01-25T03:29:22;0.43;;;0.30;;
11533;SDS011;5823;50.588;8.462;2024-01-25T03:31:49;0.43;;;0.30;;
11533;SDS011;5823;50.588;8.462;2024-01-25T03:34:16;0.40;;;0.30;;
11533;SDS011;5823;50.588;8.462;2024-01-25T03:36:42;0.32;;;0.30;;
11533;SDS011;5823;50.588;8.462;2024-01-25T03:39:08;0.40;;;0.40;;
11533;SDS011;5823;50.588;8.462;2024-01-25T03:41:34;0.43;;;0.30;;
11533;SDS011;5823;50.588;8.462;2024-01-25T03:44:01;0.15;;;0.15;;
11533;SDS011;5823;50.588;8.462;2024-01-25T03:46:27;0.20;;;0.20;;
11533;SDS011;5823;50.588;8.462;2024-01-25T03:48:54;0.55;;;0.20;;
11533;SDS011;5823;50.588;8.462;2024-01-25T03:51:21;0.90;;;0.40;;
11533;SDS011;5823;50.588;8.462;2024-01-25T03:53:48;0.80;;;0.50;;
11533;SDS011;5823;50.588;8.462;2024-01-25T03:56:15;0.40;;;0.40;;
11533;SDS011;5823;50.588;8.462;2024-01-25T03:58:42;0.47;;;0.47;;
11533;SDS011;5823;50.588;8.462;2024-01-25T04:01:08;0.50;;;0.40;;
11533;SDS011;5823;50.588;8.462;2024-01-25T04:03:35;0.30;;;0.20;;
11533;SDS011;5823;50.588;8.462;2024-01-25T04:06:02;0.30;;;0.30;;
11533;SDS011;5823;50.588;8.462;2024-01-25T04:08:29;0.93;;;0.43;;
11533;SDS011;5823;50.588;8.462;2024-01-25T04:10:55;0.70;;;0.52;;
11533;SDS011;5823;50.588;8.462;2024-01-25T04:13:21;0.43;;;0.43;;
11533;SDS011;5823;50.588;8.462;2024-01-25T04:15:47;0.63;;;0.35;;
11533;SDS011;5823;50.588;8.462;2024-01-25T04:18:14;0.17;;;0.17;;
11533;SDS011;5823;50.588;8.462;2024-01-25T04:20:40;0.57;;;0.20;;
11533;SDS011;5823;50.588;8.462;2024-01-25T04:23:08;0.52;;;0.30;;
11533;SDS011;5823;50.588;8.462;2024-01-25T04:25:34;0.88;;;0.60;;
11533;SDS011;5823;50.588;8.462;2024-01-25T04:28:01;0.40;;;0.40;;
11533;SDS011;5823;50.588;8.462;2024-01-25T04:30:27;0.20;;;0.20;;
11533;SDS011;5823;50.588;8.462;2024-01-25T04:32:55;0.15;;;0.13;;
11533;SDS011;5823;50.588;8.462;2024-01-25T04:35:22;1.13;;;0.40;;
11533;SDS011;5823;50.588;8.462;2024-01-25T04:37:48;0.13;;;0.13;;
11533;SDS011;5823;50.588;8.462;2024-01-25T04:40:16;0.50;;;0.30;;
11533;SDS011;5823;50.588;8.462;2024-01-25T04:42:42;0.20;;;0.20;;
11533;SDS011;5823;50.588;8.462;2024-01-25T04:45:08;0.28;;;0.28;;
11533;SDS011;5823;50.588;8.462;2024-01-25T04:47:37;0.25;;;0.10;;
11533;SDS011;5823;50.588;8.462;2024-01-25T04:50:03;0.38;;;0.38;;
11533;SDS011;5823;50.588;8.462;2024-01-25T04:52:29;0.88;;;0.57;;
11533;SDS011;5823;50.588;8.462;2024-01-25T04:54:56;1.02;;;0.60;;
11533;SDS011;5823;50.588;8.462;2024-01-25T04:57:23;0.20;;;0.20;;
11533;SDS011;5823;50.588;8.462;2024-01-25T04:59:49;0.43;;;0.43;;
11533;SDS011;5823;50.588;8.462;2024-01-25T05:02:16;1.85;;;1.05;;
11533;SDS011;5823;50.588;8.462;2024-01-25T05:04:42;3.08;;;0.88;;
11533;SDS011;5823;50.588;8.462;2024-01-25T05:07:08;1.20;;;0.60;;
11533;SDS011;5823;50.588;8.462;2024-01-25T05:09:34;1.50;;;0.70;;
11533;SDS011;5823;50.588;8.462;2024-01-25T05:12:00;0.52;;;0.50;;
11533;SDS011;5823;50.588;8.462;2024-01-25T05:14:28;0.68;;;0.50;;
11533;SDS011;5823;50.588;8.462;2024-01-25T05:16:54;0.60;;;0.55;;
11533;SDS011;5823;50.588;8.462;2024-01-25T05:19:20;0.55;;;0.43;;
11533;SDS011;5823;50.588;8.462;2024-01-25T05:21:47;0.40;;;0.40;;
11533;SDS011;5823;50.588;8.462;2024-01-25T05:24:13;0.43;;;0.38;;
11533;SDS011;5823;50.588;8.462;2024-01-25T05:26:39;1.27;;;0.50;;
11533;SDS011;5823;50.588;8.462;2024-01-25T05:29:05;1.05;;;0.60;;
11533;SDS011;5823;50.588;8.462;2024-01-25T05:31:33;0.35;;;0.32;;
11533;SDS011;5823;50.588;8.462;2024-01-25T05:33:59;0.85;;;0.50;;
11533;SDS011;5823;50.588;8.462;2024-01-25T05:36:25;1.00;;;0.70;;
11533;SDS011;5823;50.588;8.462;2024-01-25T05:38:51;0.65;;;0.40;;
11533;SDS011;5823;50.588;8.462;2024-01-25T05:41:18;0.50;;;0.20;;
11533;SDS011;5823;50.588;8.462;2024-01-25T05:43:44;0.30;;;0.30;;
11533;SDS011;5823;50.588;8.462;2024-01-25T05:46:10;0.13;;;0.10;;
11533;SDS011;5823;50.588;8.462;2024-01-25T05:48:38;0.43;;;0.30;;
11533;SDS011;5823;50.588;8.462;2024-01-25T05:51:04;0.20;;;0.20;;
11533;SDS011;5823;50.588;8.462;2024-01-25T05:53:30;0.30;;;0.30;;
11533;SDS011;5823;50.588;8.462;2024-01-25T05:55:57;0.10;;;0.10;;
11533;SDS011;5823;50.588;8.462;2024-01-25T05:58:23;0.45;;;0.28;;
11533;SDS011;5823;50.588;8.462;2024-01-25T06:00:49;0.40;;;0.35;;
11533;SDS011;5823;50.588;8.462;2024-01-25T06:03:16;0.30;;;0.30;;
11533;SDS011;5823;50.588;8.462;2024-01-25T06:05:43;0.15;;;0.10;;
11533;SDS011;5823;50.588;8.462;2024-01-25T06:08:09;0.20;;;0.20;;
11533;SDS011;5823;50.588;8.462;2024-01-25T06:10:36;0.77;;;0.50;;
11533;SDS011;5823;50.588;8.462;2024-01-25T06:13:02;0.50;;;0.28;;
11533;SDS011;5823;50.588;8.462;2024-01-25T06:15:29;0.30;;;0.30;;
11533;SDS011;5823;50.588;8.462;2024-01-25T06:17:55;0.30;;;0.30;;
11533;SDS011;5823;50.588;8.462;2024-01-25T06:20:22;0.43;;;0.30;;
11533;SDS011;5823;50.588;8.462;2024-01-25T06:22:49;0.20;;;0.20;;
11533;SDS011;5823;50.588;8.462;2024-01-25T06:25:16;0.30;;;0.30;;
11533;SDS011;5823;50.588;8.462;2024-01-25T06:27:42;0.30;;;0.25;;
11533;SDS011;5823;50.588;8.462;2024-01-25T06:30:08;0.10;;;0.10;;
11533;SDS011;5823;50.588;8.462;2024-01-25T06:32:35;0.50;;;0.20;;
11533;SDS011;5823;50.588;8.462;2024-01-25T06:35:02;0.25;;;0.22;;
11533;SDS011;5823;50.588;8.462;2024-01-25T06:37:29;0.50;;;0.38;;
11533;SDS011;5823;50.588;8.462;2024-01-25T06:39:57;0.60;;;0.30;;
11533;SDS011;5823;50.588;8.462;2024-01-25T06:42:23;0.20;;;0.20;;
11533;SDS011;5823;50.588;8.462;2024-01-25T06:44:49;0.20;;;0.20;;
11533;SDS011;5823;50.588;8.462;2024-01-25T06:47:16;0.35;;;0.35;;
11533;SDS011;5823;50.588;8.462;2024-01-25T06:49:42;0.75;;;0.38;;
11533;SDS011;5823;50.588;8.462;2024-01-25T06:52:08;0.30;;;0.30;;
11533;SDS011;5823;50.588;8.462;2024-01-25T06:54:34;0.35;;;0.30;;
11533;SDS011;5823;50.588;8.462;2024-01-25T06:57:02;0.32;;;0.20;;
11533;SDS011;5823;50.588;8.462;2024-01-25T06:59:28;0.20;;;0.20;;
11533;SDS011;5823;50.588;8.462;2024-01-25T07:01:54;0.17;;;0.17;;
11533;SDS011;5823;50.588;8.462;2024-01-25T07:04:21;0.40;;;0.40;;
11533;SDS011;5823;50.588;8.462;2024-01-25T07:06:47;0.08;;;0.08;;
11533;SDS011;5823;50.588;8.462;2024-01-25T07:09:13;0.10;;;0.10;;
11533;SDS011;5823;50.588;8.462;2024-01-25T07:11:40;0.15;;;0.15;;
11533;SDS011;5823;50.588;8.462;2024-01-25T07:14:07;0.20;;;0.17;;
11533;SDS011;5823;50.588;8.462;2024-01-25T07:16:33;0.30;;;0.30;;
11533;SDS011;5823;50.588;8.462;2024-01-25T07:19:00;0.40;;;0.40;;
11533;SDS011;5823;50.588;8.462;2024-01-25T07:21:26;0.30;;;0.22;;
11533;SDS011;5823;50.588;8.462;2024-01-25T07:23:52;0.10;;;0.10;;
11533;SDS011;5823;50.588;8.462;2024-01-25T07:26:18;0.52;;;0.30;;
11533;SDS011;5823;50.588;8.462;2024-01-25T07:28:45;0.73;;;0.30;;
11533;SDS011;5823;50.588;8.462;2024-01-25T07:31:13;0.43;;;0.43;;
11533;SDS011;5823;50.588;8.462;2024-01-25T07:33:39;0.45;;;0.20;;
11533;SDS011;5823;50.588;8.462;2024-01-25T07:36:06;0.20;;;0.20;;
11533;SDS011;5823;50.588;8.462;2024-01-25T07:38:32;0.80;;;0.30;;
11533;SDS011;5823;50.588;8.462;2024-01-25T07:40:58;0.90;;;0.43;;
11533;SDS011;5823;50.588;8.462;2024-01-25T07:43:24;0.50;;;0.38;;
11533;SDS011;5823;50.588;8.462;2024-01-25T07:45:51;0.30;;;0.30;;
11533;SDS011;5823;50.588;8.462;2024-01-25T07:48:18;0.30;;;0.20;;
11533;SDS011;5823;50.588;8.462;2024-01-25T07:50:44;0.20;;;0.20;;
11533;SDS011;5823;50.588;8.462;2024-01-25T07:53:11;1.23;;;0.25;;
11533;SDS011;5823;50.588;8.462;2024-01-25T07:55:39;0.30;;;0.30;;
11533;SDS011;5823;50.588;8.462;2024-01-25T07:58:05;0.77;;;0.30;;
11533;SDS011;5823;50.588;8.462;2024-01-25T08:00:32;0.20;;;0.20;;
11533;SDS011;5823;50.588;8.462;2024-01-25T08:02:58;0.45;;;0.30;;
11533;SDS011;5823;50.588;8.462;2024-01-25T08:05:25;0.28;;;0.25;;
11533;SDS011;5823;50.588;8.462;2024-01-25T08:07:52;0.30;;;0.30;;
11533;SDS011;5823;50.588;8.462;2024-01-25T08:10:18;0.52;;;0.40;;
11533;SDS011;5823;50.588;8.462;2024-01-25T08:12:44;0.20;;;0.20;;
11533;SDS011;5823;50.588;8.462;2024-01-25T08:15:12;1.63;;;0.28;;
11533;SDS011;5823;50.588;8.462;2024-01-25T08:17:39;0.50;;;0.30;;
11533;SDS011;5823;50.588;8.462;2024-01-25T08:20:06;0.20;;;0.20;;
11533;SDS011;5823;50.588;8.462;2024-01-25T08:22:33;0.17;;;0.17;;
11533;SDS011;5823;50.588;8.462;2024-01-25T08:24:59;0.35;;;0.35;;
11533;SDS011;5823;50.588;8.462;2024-01-25T08:27:26;0.35;;;0.30;;
11533;SDS011;5823;50.588;8.462;2024-01-25T08:29:52;0.20;;;0.20;;
11533;SDS011;5823;50.588;8.462;2024-01-25T08:32:18;0.28;;;0.22;;
11533;SDS011;5823;50.588;8.462;2024-01-25T08:34:44;0.45;;;0.30;;
11533;SDS011;5823;50.588;8.462;2024-01-25T08:37:11;0.70;;;0.30;;
11533;SDS011;5823;50.588;8.462;2024-01-25T08:39:38;0.43;;;0.40;;
11533;SDS011;5823;50.588;8.462;2024-01-25T08:42:04;0.43;;;0.35;;
11533;SDS011;5823;50.588;8.462;2024-01-25T08:44:31;0.25;;;0.20;;
11533;SDS011;5823;50.588;8.462;2024-01-25T08:46:57;0.30;;;0.30;;
11533;SDS011;5823;50.588;8.462;2024-01-25T08:49:24;0.20;;;0.20;;
11533;SDS011;5823;50.588;8.462;2024-01-25T08:51:50;0.30;;;0.30;;
11533;SDS011;5823;50.588;8.462;2024-01-25T08:54:16;0.35;;;0.35;;
11533;SDS011;5823;50.588;8.462;2024-01-25T08:56:44;0.38;;;0.38;;
11533;SDS011;5823;50.588;8.462;2024-01-25T08:59:10;1.85;;;0.50;;
11533;SDS011;5823;50.588;8.462;2024-01-25T09:01:36;0.25;;;0.25;;
11533;SDS011;5823;50.588;8.462;2024-01-25T09:04:02;0.40;;;0.40;;
11533;SDS011;5823;50.588;8.462;2024-01-25T09:06:29;0.63;;;0.40;;
11533;SDS011;5823;50.588;8.462;2024-01-25T09:08:55;0.63;;;0.35;;
11533;SDS011;5823;50.588;8.462;2024-01-25T09:11:21;0.30;;;0.30;;
11533;SDS011;5823;50.588;8.462;2024-01-25T09:13:49;0.10;;;0.10;;
11533;SDS011;5823;50.588;8.462;2024-01-25T09:16:18;0.90;;;0.32;;
11533;SDS011;5823;50.588;8.462;2024-01-25T09:18:45;0.35;;;0.30;;
11533;SDS011;5823;50.588;8.462;2024-01-25T09:21:11;0.43;;;0.30;;
11533;SDS011;5823;50.588;8.462;2024-01-25T09:23:37;0.22;;;0.22;;
11533;SDS011;5823;50.588;8.462;2024-01-25T09:26:03;0.35;;;0.30;;
11533;SDS011;5823;50.588;8.462;2024-01-25T09:28:30;0.52;;;0.40;;
11533;SDS011;5823;50.588;8.462;2024-01-25T09:30:57;0.40;;;0.40;;
11533;SDS011;5823;50.588;8.462;2024-01-25T09:33:23;0.68;;;0.45;;
11533;SDS011;5823;50.588;8.462;2024-01-25T09:35:50;0.50;;;0.47;;
11533;SDS011;5823;50.588;8.462;2024-01-25T09:38:16;0.70;;;0.55;;
11533;SDS011;5823;50.588;8.462;2024-01-25T09:40:42;0.88;;;0.50;;
11533;SDS011;5823;50.588;8.462;2024-01-25T09:43:08;0.65;;;0.50;;
11533;SDS011;5823;50.588;8.462;2024-01-25T09:45:35;0.77;;;0.38;;
11533;SDS011;5823;50.588;8.462;2024-01-25T09:48:02;0.35;;;0.32;;
11533;SDS011;5823;50.588;8.462;2024-01-25T09:50:29;0.50;;;0.50;;
11533;SDS011;5823;50.588;8.462;2024-01-25T09:52:58;0.45;;;0.32;;
11533;SDS011;5823;50.588;8.462;2024-01-25T09:55:25;0.43;;;0.30;;
11533;SDS011;5823;50.588;8.462;2024-01-25T09:57:53;0.22;;;0.22;;
11533;SDS011;5823;50.588;8.462;2024-01-25T10:00:19;0.88;;;0.40;;
11533;SDS011;5823;50.588;8.462;2024-01-25T10:02:47;0.20;;;0.20;;
11533;SDS011;5823;50.588;8.462;2024-01-25T10:05:14;0.28;;;0.28;;
11533;SDS011;5823;50.588;8.462;2024-01-25T10:07:41;1.38;;;0.50;;
11533;SDS011;5823;50.588;8.462;2024-01-25T10:10:08;0.40;;;0.30;;
11533;SDS011;5823;50.588;8.462;2024-01-25T10:12:35;0.85;;;0.40;;
11533;SDS011;5823;50.588;8.462;2024-01-25T10:15:02;0.45;;;0.30;;
11533;SDS011;5823;50.588;8.462;2024-01-25T10:17:29;0.60;;;0.47;;
11533;SDS011;5823;50.588;8.462;2024-01-25T10:19:55;1.00;;;0.60;;
11533;SDS011;5823;50.588;8.462;2024-01-25T10:22:24;0.20;;;0.20;;
11533;SDS011;5823;50.588;8.462;2024-01-25T10:24:50;0.52;;;0.52;;
11533;SDS011;5823;50.588;8.462;2024-01-25T10:27:18;1.75;;;0.88;;
11533;SDS011;5823;50.588;8.462;2024-01-25T10:29:44;0.75;;;0.73;;
11533;SDS011;5823;50.588;8.462;2024-01-25T10:32:11;0.47;;;0.47;;
11533;SDS011;5823;50.588;8.462;2024-01-25T10:34:38;0.65;;;0.50;;
11533;SDS011;5823;50.588;8.462;2024-01-25T10:37:05;1.27;;;0.85;;
11533;SDS011;5823;50.588;8.462;2024-01-25T10:39:33;0.88;;;0.82;;
11533;SDS011;5823;50.588;8.462;2024-01-25T10:41:59;0.80;;;0.70;;
11533;SDS011;5823;50.588;8.462;2024-01-25T10:44:25;0.70;;;0.52;;
11533;SDS011;5823;50.588;8.462;2024-01-25T10:46:52;0.30;;;0.30;;
11533;SDS011;5823;50.588;8.462;2024-01-25T10:49:19;0.43;;;0.43;;
11533;SDS011;5823;50.588;8.462;2024-01-25T10:51:46;0.52;;;0.47;;
11533;SDS011;5823;50.588;8.462;2024-01-25T10:54:13;1.30;;;0.70;;
11533;SDS011;5823;50.588;8.462;2024-01-25T10:56:41;0.75;;;0.60;;
11533;SDS011;5823;50.588;8.462;2024-01-25T10:59:08;1.75;;;0.88;;
11533;SDS011;5823;50.588;8.462;2024-01-25T11:01:34;0.45;;;0.45;;
11533;SDS011;5823;50.588;8.462;2024-01-25T11:04:00;1.00;;;0.63;;
11533;SDS011;5823;50.588;8.462;2024-01-25T11:06:27;1.10;;;0.45;;
11533;SDS011;5823;50.588;8.462;2024-01-25T11:09:03;1.40;;;0.80;;
11533;SDS011;5823;50.588;8.462;2024-01-25T11:11:29;0.35;;;0.35;;
11533;SDS011;5823;50.588;8.462;2024-01-25T11:13:58;1.00;;;0.60;;
11533;SDS011;5823;50.588;8.462;2024-01-25T11:16:27;0.82;;;0.50;;
11533;SDS011;5823;50.588;8.462;2024-01-25T11:18:54;1.27;;;0.70;;
11533;SDS011;5823;50.588;8.462;2024-01-25T11:21:26;0.80;;;0.60;;
11533;SDS011;5823;50.588;8.462;2024-01-25T11:24:00;0.32;;;0.20;;
11533;SDS011;5823;50.588;8.462;2024-01-25T11:26:26;0.30;;;0.20;;
11533;SDS011;5823;50.588;8.462;2024-01-25T11:28:53;1.48;;;0.82;;
11533;SDS011;5823;50.588;8.462;2024-01-25T11:31:20;0.60;;;0.60;;
11533;SDS011;5823;50.588;8.462;2024-01-25T11:33:47;1.63;;;0.80;;
11533;SDS011;5823;50.588;8.462;2024-01-25T11:36:13;0.93;;;0.55;;
11533;SDS011;5823;50.588;8.462;2024-01-25T11:38:39;0.47;;;0.47;;
11533;SDS011;5823;50.588;8.462;2024-01-25T11:41:06;0.65;;;0.50;;
11533;SDS011;5823;50.588;8.462;2024-01-25T11:43:32;0.47;;;0.30;;
11533;SDS011;5823;50.588;8.462;2024-01-25T11:45:58;0.90;;;0.32;;
11533;SDS011;5823;50.588;8.462;2024-01-25T11:48:28;0.45;;;0.30;;
11533;SDS011;5823;50.588;8.462;2024-01-25T11:50:54;0.75;;;0.40;;
11533;SDS011;5823;50.588;8.462;2024-01-25T11:53:20;0.80;;;0.45;;
11533;SDS011;5823;50.588;8.462;2024-01-25T11:55:46;0.40;;;0.40;;
11533;SDS011;5823;50.588;8.462;2024-01-25T11:58:12;0.13;;;0.13;;
11533;SDS011;5823;50.588;8.462;2024-01-25T12:00:39;0.20;;;0.20;;
11533;SDS011;5823;50.588;8.462;2024-01-25T12:03:05;0.75;;;0.40;;
11533;SDS011;5823;50.588;8.462;2024-01-25T12:05:33;0.50;;;0.50;;
11533;SDS011;5823;50.588;8.462;2024-01-25T12:07:59;0.68;;;0.40;;
11533;SDS011;5823;50.588;8.462;2024-01-25T12:10:26;0.40;;;0.40;;
11533;SDS011;5823;50.588;8.462;2024-01-25T12:12:52;0.70;;;0.40;;
11533;SDS011;5823;50.588;8.462;2024-01-25T12:15:18;0.30;;;0.20;;
11533;SDS011;5823;50.588;8.462;2024-01-25T12:17:44;0.75;;;0.32;;
11533;SDS011;5823;50.588;8.462;2024-01-25T12:20:11;0.30;;;0.22;;
11533;SDS011;5823;50.588;8.462;2024-01-25T12:22:39;0.10;;;0.10;;
11533;SDS011;5823;50.588;8.462;2024-01-25T12:25:08;0.45;;;0.22;;
11533;SDS011;5823;50.588;8.462;2024-01-25T12:27:34;0.75;;;0.32;;
11533;SDS011;5823;50.588;8.462;2024-01-25T12:30:02;0.45;;;0.20;;
11533;SDS011;5823;50.588;8.462;2024-01-25T12:32:29;0.30;;;0.30;;
11533;SDS011;5823;50.588;8.462;2024-01-25T12:34:55;0.70;;;0.40;;
11533;SDS011;5823;50.588;8.462;2024-01-25T12:37:22;0.82;;;0.50;;
11533;SDS011;5823;50.588;8.462;2024-01-25T12:39:49;0.88;;;0.50;;
11533;SDS011;5823;50.588;8.462;2024-01-25T12:42:15;1.13;;;0.50;;
11533;SDS011;5823;50.588;8.462;2024-01-25T12:44:42;0.40;;;0.30;;
11533;SDS011;5823;50.588;8.462;2024-01-25T12:47:08;2.08;;;0.73;;
11533;SDS011;5823;50.588;8.462;2024-01-25T12:49:34;0.93;;;0.60;;
11533;SDS011;5823;50.588;8.462;2024-01-25T12:52:00;0.50;;;0.50;;
11533;SDS011;5823;50.588;8.462;2024-01-25T12:54:26;0.45;;;0.40;;
11533;SDS011;5823;50.588;8.462;2024-01-25T12:56:55;0.77;;;0.40;;
11533;SDS011;5823;50.588;8.462;2024-01-25T12:59:21;0.80;;;0.50;;
11533;SDS011;5823;50.588;8.462;2024-01-25T13:01:47;0.43;;;0.30;;
11533;SDS011;5823;50.588;8.462;2024-01-25T13:04:14;0.85;;;0.52;;
11533;SDS011;5823;50.588;8.462;2024-01-25T13:06:40;1.40;;;0.80;;
11533;SDS011;5823;50.588;8.462;2024-01-25T13:09:06;0.60;;;0.57;;
11533;SDS011;5823;50.588;8.462;2024-01-25T13:11:32;1.70;;;0.85;;
11533;SDS011;5823;50.588;8.462;2024-01-25T13:14:00;1.98;;;0.80;;
11533;SDS011;5823;50.588;8.462;2024-01-25T13:16:26;1.42;;;0.80;;
11533;SDS011;5823;50.588;8.462;2024-01-25T13:18:53;1.42;;;0.60;;
11533;SDS011;5823;50.588;8.462;2024-01-25T13:21:19;0.60;;;0.45;;
11533;SDS011;5823;50.588;8.462;2024-01-25T13:23:45;0.65;;;0.47;;
11533;SDS011;5823;50.588;8.462;2024-01-25T13:26:11;0.77;;;0.57;;
11533;SDS011;5823;50.588;8.462;2024-01-25T13:28:37;0.00;;;0.00;;
11533;SDS011;5823;50.588;8.462;2024-01-25T13:31:05;0.25;;;0.25;;
11533;SDS011;5823;50.588;8.462;2024-01-25T13:33:31;1.30;;;0.35;;
11533;SDS011;5823;50.588;8.462;2024-01-25T13:35:57;0.38;;;0.30;;
11533;SDS011;5823;50.588;8.462;2024-01-25T13:38:24;0.30;;;0.30;;
11533;SDS011;5823;50.588;8.462;2024-01-25T13:40:50;0.88;;;0.55;;
11533;SDS011;5823;50.588;8.462;2024-01-25T13:43:16;0.28;;;0.22;;
11533;SDS011;5823;50.588;8.462;2024-01-25T13:45:42;0.40;;;0.30;;
11533;SDS011;5823;50.588;8.462;2024-01-25T13:48:10;0.28;;;0.28;;
11533;SDS011;5823;50.588;8.462;2024-01-25T13:50:36;0.20;;;0.17;;
11533;SDS011;5823;50.588;8.462;2024-01-25T13:53:03;0.38;;;0.30;;
11533;SDS011;5823;50.588;8.462;2024-01-25T13:55:29;0.65;;;0.40;;
11533;SDS011;5823;50.588;8.462;2024-01-25T13:57:55;0.80;;;0.28;;
11533;SDS011;5823;50.588;8.462;2024-01-25T14:00:21;0.50;;;0.30;;
11533;SDS011;5823;50.588;8.462;2024-01-25T14:02:48;0.20;;;0.20;;
11533;SDS011;5823;50.588;8.462;2024-01-25T14:05:15;0.50;;;0.40;;
11533;SDS011;5823;50.588;8.462;2024-01-25T14:07:41;0.88;;;0.38;;
11533;SDS011;5823;50.588;8.462;2024-01-25T14:10:08;0.30;;;0.30;;
11533;SDS011;5823;50.588;8.462;2024-01-25T14:12:34;1.48;;;0.45;;
11533;SDS011;5823;50.588;8.462;2024-01-25T14:15:01;0.20;;;0.20;;
11533;SDS011;5823;50.588;8.462;2024-01-25T14:17:27;0.80;;;0.22;;
11533;SDS011;5823;50.588;8.462;2024-01-25T14:19:53;0.20;;;0.13;;
11533;SDS011;5823;50.588;8.462;2024-01-25T14:22:21;0.73;;;0.40;;
11533;SDS011;5823;50.588;8.462;2024-01-25T14:24:47;0.68;;;0.35;;
11533;SDS011;5823;50.588;8.462;2024-01-25T14:27:14;0.30;;;0.30;;
11533;SDS011;5823;50.588;8.462;2024-01-25T14:29:40;0.30;;;0.17;;
11533;SDS011;5823;50.588;8.462;2024-01-25T14:32:06;0.43;;;0.43;;
11533;SDS011;5823;50.588;8.462;2024-01-25T14:34:32;0.43;;;0.43;;
11533;SDS011;5823;50.588;8.462;2024-01-25T14:36:59;0.60;;;0.30;;
11533;SDS011;5823;50.588;8.462;2024-01-25T14:39:26;0.30;;;0.30;;
11533;SDS011;5823;50.588;8.462;2024-01-25T14:41:53;0.35;;;0.30;;
11533;SDS011;5823;50.588;8.462;2024-01-25T14:44:19;0.28;;;0.20;;
11533;SDS011;5823;50.588;8.462;2024-01-25T14:46:46;0.10;;;0.10;;
11533;SDS011;5823;50.588;8.462;2024-01-25T14:49:12;0.77;;;0.30;;
11533;SDS011;5823;50.588;8.462;2024-01-25T14:51:39;0.57;;;0.38;;
11533;SDS011;5823;50.588;8.462;2024-01-25T14:54:05;0.50;;;0.50;;
11533;SDS011;5823;50.588;8.462;2024-01-25T14:56:33;0.22;;;0.22;;